createdAt,value
2018-06-18T00:00:40.459Z,121.17
2018-06-18T00:03:11.879Z,123.75
2018-06-18T00:05:43.174Z,123.95
2018-06-18T00:08:14.732Z,120.00
2018-06-18T00:10:45.839Z,123.10
2018-06-18T00:13:17.495Z,121.30
2018-06-18T00:15:48.754Z,118.67
2018-06-18T00:18:20.201Z,120.20
2018-06-18T00:20:51.849Z,120.57
2018-06-18T00:23:23.542Z,122.92
2018-06-18T00:25:54.832Z,123.30
2018-06-18T00:28:26.069Z,120.33
2018-06-18T00:30:57.471Z,123.60
2018-06-18T00:33:28.960Z,126.22
2018-06-18T00:36:00.035Z,122.45
2018-06-18T00:38:31.309Z,121.57
2018-06-18T00:41:02.761Z,122.65
2018-06-18T00:43:34.201Z,124.22
2018-06-18T00:46:05.690Z,121.13
2018-06-18T00:48:37.019Z,123.18
2018-06-18T00:51:08.260Z,121.20
2018-06-18T00:53:39.403Z,119.35
2018-06-18T00:56:12.986Z,119.53
2018-06-18T00:58:44.310Z,125.53
2018-06-18T01:01:15.573Z,123.62
2018-06-18T01:03:47.042Z,122.70
2018-06-18T01:06:18.287Z,121.80
2018-06-18T01:08:49.787Z,124.02
2018-06-18T01:11:21.019Z,120.50
2018-06-18T01:13:52.309Z,120.50
2018-06-18T01:16:23.511Z,124.85
2018-06-18T01:18:55.644Z,122.50
2018-06-18T01:21:26.821Z,122.75
2018-06-18T01:25:05.483Z,120.90
2018-06-18T01:27:36.619Z,125.18
2018-06-18T01:30:08.151Z,124.35
2018-06-18T01:32:39.556Z,130.30
2018-06-18T01:35:10.969Z,119.10
2018-06-18T01:37:42.030Z,120.65
2018-06-18T01:40:13.373Z,121.05
2018-06-18T01:42:44.639Z,124.65
2018-06-18T01:45:16.067Z,123.10
2018-06-18T01:47:47.105Z,118.97
2018-06-18T01:50:18.349Z,121.28
2018-06-18T01:52:49.580Z,126.45
2018-06-18T01:55:21.094Z,123.30
2018-06-18T01:57:52.106Z,123.60
2018-06-18T02:00:23.798Z,123.13
2018-06-18T02:02:55.067Z,127.82
2018-06-18T02:05:26.267Z,123.02
2018-06-18T02:07:57.552Z,129.18
2018-06-18T02:10:29.384Z,123.60
2018-06-18T02:13:00.919Z,127.45
2018-06-18T02:15:33.472Z,127.50
2018-06-18T02:18:04.856Z,121.33
2018-06-18T02:20:36.975Z,127.90
2018-06-18T02:23:08.332Z,128.87
2018-06-18T02:25:39.662Z,124.20
2018-06-18T02:28:15.541Z,123.67
2018-06-18T02:30:52.495Z,123.55
2018-06-18T02:33:28.515Z,125.85
2018-06-18T02:36:04.846Z,126.90
2018-06-18T02:38:41.127Z,128.15
2018-06-18T02:41:12.386Z,126.60
2018-06-18T02:43:43.663Z,120.60
2018-06-18T02:46:14.903Z,130.67
2018-06-18T02:48:46.093Z,128.18
2018-06-18T02:51:17.557Z,126.95
2018-06-18T02:53:48.769Z,125.45
2018-06-18T02:56:22.959Z,124.55
2018-06-18T02:58:54.037Z,125.12
2018-06-18T03:01:25.213Z,123.42
2018-06-18T03:03:56.393Z,123.70
2018-06-18T03:06:28.371Z,125.15
2018-06-18T03:08:59.603Z,126.90
2018-06-18T03:11:31.081Z,121.72
2018-06-18T03:14:02.262Z,123.00
2018-06-18T03:16:34.384Z,124.62
2018-06-18T03:19:11.156Z,126.95
2018-06-18T03:21:47.331Z,120.80
2018-06-18T03:24:23.389Z,124.50
2018-06-18T03:26:59.666Z,118.90
2018-06-18T03:29:33.054Z,123.55
2018-06-18T03:32:09.874Z,125.05
2018-06-18T03:34:41.320Z,125.30
2018-06-18T03:37:14.945Z,133.12
2018-06-18T03:39:46.149Z,128.35
2018-06-18T03:42:17.432Z,129.40
2018-06-18T03:45:52.149Z,121.28
2018-06-18T03:48:23.699Z,122.37
2018-06-18T03:50:54.937Z,122.40
2018-06-18T03:53:26.262Z,123.02
2018-06-18T03:56:00.002Z,126.95
2018-06-18T03:58:32.149Z,124.90
2018-06-18T04:01:19.065Z,125.65
2018-06-18T04:03:56.092Z,123.42
2018-06-18T04:06:32.485Z,124.95
2018-06-18T04:09:09.116Z,128.35
2018-06-18T04:11:45.246Z,122.95
2018-06-18T04:14:17.011Z,122.53
2018-06-18T04:16:48.178Z,125.50
2018-06-18T04:19:19.409Z,123.35
2018-06-18T04:21:51.744Z,126.95
2018-06-18T04:24:24.460Z,121.62
2018-06-18T04:26:56.243Z,127.85
2018-06-18T04:29:27.800Z,125.72
2018-06-18T04:31:58.916Z,122.37
2018-06-18T04:34:37.107Z,121.02
2018-06-18T04:37:09.181Z,120.47
2018-06-18T04:39:40.428Z,125.45
2018-06-18T04:42:16.590Z,126.18
2018-06-18T04:44:52.798Z,130.30
2018-06-18T04:47:28.976Z,125.58
2018-06-18T04:50:05.903Z,125.42
2018-06-18T04:52:37.096Z,131.03
2018-06-18T04:55:08.878Z,129.20
2018-06-18T04:57:40.050Z,128.93
2018-06-18T05:00:23.850Z,129.60
2018-06-18T05:02:55.237Z,131.07
2018-06-18T05:05:26.345Z,125.87
2018-06-18T05:08:06.305Z,130.93
2018-06-18T05:10:37.539Z,130.37
2018-06-18T05:13:08.771Z,131.80
2018-06-18T05:15:41.454Z,128.12
2018-06-18T05:18:12.519Z,131.20
2018-06-18T05:20:43.873Z,132.85
2018-06-18T05:23:18.561Z,130.93
2018-06-18T05:25:54.470Z,130.10
2018-06-18T05:28:27.866Z,138.07
2018-06-18T05:30:59.856Z,131.82
2018-06-18T05:33:31.077Z,135.88
2018-06-18T05:36:02.478Z,135.45
2018-06-18T05:38:35.782Z,142.50
2018-06-18T05:41:07.032Z,135.52
2018-06-18T05:43:40.392Z,134.78
2018-06-18T05:46:12.151Z,132.20
2018-06-18T05:48:43.604Z,137.20
2018-06-18T05:51:31.897Z,138.62
2018-06-18T05:54:03.210Z,139.43
2018-06-18T05:56:35.198Z,137.65
2018-06-18T05:59:08.907Z,139.40
2018-06-18T06:01:42.398Z,135.50
2018-06-18T06:04:13.977Z,136.00
2018-06-18T06:06:45.190Z,137.50
2018-06-18T06:09:16.823Z,137.95
2018-06-18T06:11:48.153Z,133.97
2018-06-18T06:14:19.649Z,134.05
2018-06-18T06:16:52.532Z,138.45
2018-06-18T06:19:24.433Z,137.40
2018-06-18T06:21:55.490Z,134.47
2018-06-18T06:24:26.821Z,133.75
2018-06-18T06:26:58.013Z,129.60
2018-06-18T06:29:29.286Z,134.85
2018-06-18T06:32:00.427Z,130.43
2018-06-18T06:34:31.841Z,131.95
2018-06-18T06:37:03.214Z,135.40
2018-06-18T06:39:35.350Z,140.97
2018-06-18T06:42:12.471Z,137.45
2018-06-18T06:44:43.603Z,138.03
2018-06-18T06:47:14.925Z,135.12
2018-06-18T06:49:47.282Z,130.43
2018-06-18T06:52:18.786Z,134.72
2018-06-18T06:54:51.449Z,134.27
2018-06-18T06:57:23.006Z,128.70
2018-06-18T06:59:54.263Z,132.70
2018-06-18T07:02:25.487Z,135.20
2018-06-18T07:04:57.069Z,137.77
2018-06-18T07:07:28.108Z,132.87
2018-06-18T07:09:59.281Z,132.60
2018-06-18T07:12:30.587Z,129.72
2018-06-18T07:15:01.743Z,135.48
2018-06-18T07:17:33.566Z,135.65
2018-06-18T07:20:04.897Z,136.40
2018-06-18T07:22:36.239Z,127.20
2018-06-18T07:25:07.421Z,127.12
2018-06-18T07:27:38.725Z,133.60
2018-06-18T07:30:10.292Z,134.43
2018-06-18T07:32:41.399Z,127.53
2018-06-18T07:35:12.486Z,127.82
2018-06-18T07:37:43.645Z,130.12
2018-06-18T07:40:15.202Z,137.18
2018-06-18T07:42:46.583Z,135.63
2018-06-18T07:45:23.164Z,127.55
2018-06-18T07:47:54.708Z,126.27
2018-06-18T07:50:26.395Z,129.03
2018-06-18T07:52:57.387Z,128.57
2018-06-18T07:55:29.454Z,134.07
2018-06-18T07:58:01.056Z,132.32
2018-06-18T08:00:32.194Z,132.75
2018-06-18T08:03:03.565Z,129.05
2018-06-18T08:05:34.822Z,127.45
2018-06-18T08:08:06.079Z,128.32
2018-06-18T08:10:37.254Z,134.30
2018-06-18T08:13:08.541Z,129.97
2018-06-18T08:15:41.284Z,128.07
2018-06-18T08:18:13.340Z,129.87
2018-06-18T08:20:44.718Z,130.45
2018-06-18T08:23:15.740Z,132.65
2018-06-18T08:25:47.595Z,128.82
2018-06-18T08:28:19.356Z,125.07
2018-06-18T08:30:52.919Z,128.62
2018-06-18T08:33:24.480Z,130.03
2018-06-18T08:35:55.855Z,130.18
2018-06-18T08:38:27.961Z,134.30
2018-06-18T08:40:59.413Z,133.67
2018-06-18T08:43:30.891Z,133.37
2018-06-18T08:46:02.105Z,134.78
2018-06-18T08:48:38.248Z,140.03
2018-06-18T08:51:15.058Z,128.70
2018-06-18T08:53:51.701Z,132.22
2018-06-18T08:57:29.116Z,129.57
2018-06-18T09:00:05.397Z,129.80
2018-06-18T09:02:36.640Z,127.17
2018-06-18T09:05:12.347Z,131.03
2018-06-18T09:07:48.675Z,127.05
2018-06-18T09:10:20.244Z,122.10
2018-06-18T09:12:51.485Z,127.22
2018-06-18T09:15:23.905Z,128.55
2018-06-18T09:17:56.468Z,124.02
2018-06-18T09:20:27.660Z,127.80
2018-06-18T09:22:58.822Z,130.12
2018-06-18T09:25:30.447Z,124.25
2018-06-18T09:28:01.918Z,133.03
2018-06-18T09:30:34.735Z,132.67
2018-06-18T09:33:06.026Z,132.85
2018-06-18T09:35:37.392Z,132.65
2018-06-18T09:38:09.865Z,138.18
2018-06-18T09:40:50.130Z,131.85
2018-06-18T09:43:24.448Z,134.55
2018-06-18T09:46:00.511Z,138.18
2018-06-18T09:50:50.818Z,133.43
2018-06-18T09:53:26.862Z,135.85
2018-06-18T09:56:02.907Z,136.68
2018-06-18T09:59:37.715Z,125.95
2018-06-18T10:02:09.792Z,131.27
2018-06-18T10:04:40.916Z,130.15
2018-06-18T10:07:13.235Z,129.25
2018-06-18T10:09:44.428Z,133.25
2018-06-18T10:12:15.795Z,134.90
2018-06-18T10:14:47.138Z,133.85
2018-06-18T10:17:19.130Z,141.05
2018-06-18T10:19:51.742Z,138.18
2018-06-18T10:22:23.570Z,131.30
2018-06-18T10:24:55.387Z,130.95
2018-06-18T10:27:27.702Z,134.37
2018-06-18T10:29:59.874Z,133.63
2018-06-18T10:32:36.137Z,124.38
2018-06-18T10:36:13.294Z,132.95
2018-06-18T10:38:49.501Z,132.70
2018-06-18T10:41:26.127Z,136.10
2018-06-18T10:43:57.486Z,130.67
2018-06-18T10:46:29.471Z,129.55
2018-06-18T10:49:00.931Z,132.47
2018-06-18T10:51:33.513Z,128.85
2018-06-18T10:54:05.997Z,137.62
2018-06-18T10:56:37.995Z,133.95
2018-06-18T10:59:09.186Z,128.80
2018-06-18T11:01:43.137Z,130.75
2018-06-18T11:04:34.752Z,133.87
2018-06-18T11:07:07.574Z,134.47
2018-06-18T11:09:38.664Z,134.78
2018-06-18T11:12:09.833Z,131.37
2018-06-18T11:14:41.659Z,127.78
2018-06-18T11:17:18.768Z,132.00
2018-06-18T11:19:55.570Z,129.12
2018-06-18T11:22:38.516Z,134.90
2018-06-18T11:25:25.497Z,132.87
2018-06-18T11:27:59.906Z,134.65
2018-06-18T11:30:33.177Z,137.00
2018-06-18T11:33:06.436Z,139.70
2018-06-18T11:35:37.571Z,133.00
2018-06-18T11:38:10.347Z,134.00
2018-06-18T11:40:41.988Z,130.20
2018-06-18T11:43:16.262Z,127.60
2018-06-18T11:45:48.626Z,130.65
2018-06-18T11:48:22.180Z,128.20
2018-06-18T11:50:53.626Z,131.70
2018-06-18T11:53:25.015Z,127.30
2018-06-18T11:55:56.535Z,135.85
2018-06-18T11:59:33.479Z,133.18
2018-06-18T12:02:09.569Z,128.30
2018-06-18T12:04:45.818Z,128.95
2018-06-18T12:07:22.512Z,129.32
2018-06-18T12:09:54.363Z,134.50
2018-06-18T12:12:26.146Z,128.75
2018-06-18T12:14:57.323Z,125.47
2018-06-18T12:17:28.452Z,126.27
2018-06-18T12:19:59.778Z,122.75
2018-06-18T12:22:30.866Z,129.38
2018-06-18T12:25:02.249Z,126.95
2018-06-18T12:27:35.435Z,130.67
2018-06-18T12:30:06.770Z,125.35
2018-06-18T12:32:37.882Z,127.05
2018-06-18T12:35:09.171Z,127.67
2018-06-18T12:37:41.223Z,130.80
2018-06-18T12:40:12.367Z,129.30
2018-06-18T12:42:43.621Z,126.78
2018-06-18T12:45:22.343Z,125.15
2018-06-18T12:47:59.229Z,128.45
2018-06-18T12:50:36.216Z,132.93
2018-06-18T12:53:12.192Z,128.80
2018-06-18T12:55:48.537Z,132.07
2018-06-18T12:58:19.558Z,125.35
2018-06-18T13:00:51.154Z,128.23
2018-06-18T13:03:22.739Z,127.02
2018-06-18T13:05:54.076Z,127.30
2018-06-18T13:08:25.254Z,128.90
2018-06-18T13:10:56.431Z,128.97
2018-06-18T13:13:27.783Z,126.40
2018-06-18T13:15:58.920Z,127.32
2018-06-18T13:18:30.072Z,130.70
2018-06-18T13:21:01.348Z,131.80
2018-06-18T13:23:32.712Z,133.27
2018-06-18T13:26:04.064Z,136.03
2018-06-18T13:28:36.142Z,130.43
2018-06-18T13:31:07.895Z,132.20
2018-06-18T13:33:39.481Z,136.28
2018-06-18T13:36:10.773Z,133.43
2018-06-18T13:38:49.726Z,137.95
2018-06-18T13:41:34.450Z,137.52
2018-06-18T13:48:39.674Z,140.47
2018-06-18T13:51:52.224Z,135.70
2018-06-18T13:55:08.407Z,137.70
2018-06-18T13:57:43.612Z,134.15
2018-06-18T14:00:15.058Z,128.65
2018-06-18T14:02:46.128Z,134.25
2018-06-18T14:05:17.293Z,133.18
2018-06-18T14:07:48.502Z,133.60
2018-06-18T14:10:19.941Z,133.55
2018-06-18T14:12:51.092Z,130.03
2018-06-18T14:15:22.344Z,133.63
2018-06-18T14:17:53.377Z,137.18
2018-06-18T14:20:26.552Z,133.65
2018-06-18T14:22:57.486Z,133.15
2018-06-18T14:25:28.643Z,133.30
2018-06-18T14:27:59.793Z,132.65
2018-06-18T14:30:35.885Z,135.00
2018-06-18T14:33:12.029Z,134.40
2018-06-18T14:35:48.456Z,135.68
2018-06-18T14:38:24.495Z,133.55
2018-06-18T14:40:55.852Z,135.60
2018-06-18T14:43:27.775Z,132.60
2018-06-18T14:45:59.276Z,129.65
2018-06-18T14:48:33.036Z,132.43
2018-06-18T14:51:04.281Z,129.57
2018-06-18T14:53:35.610Z,134.00
2018-06-18T14:56:18.218Z,133.15
2018-06-18T14:59:13.494Z,134.72
2018-06-18T15:01:44.855Z,130.93
2018-06-18T15:04:15.989Z,132.97
2018-06-18T15:06:47.361Z,137.52
2018-06-18T15:09:20.228Z,141.50
2018-06-18T15:11:52.775Z,134.97
2018-06-18T15:14:23.873Z,138.07
2018-06-18T15:16:55.070Z,133.43
2018-06-18T15:19:28.444Z,129.78
2018-06-18T15:22:00.873Z,129.72
2018-06-18T15:24:40.757Z,135.45
2018-06-18T15:27:11.991Z,133.90
2018-06-18T15:29:42.953Z,136.90
2018-06-18T15:32:14.371Z,137.15
2018-06-18T15:34:45.637Z,135.52
2018-06-18T15:37:16.870Z,129.70
2018-06-18T15:39:48.136Z,135.93
2018-06-18T15:42:19.486Z,131.60
2018-06-18T15:44:50.545Z,129.50
2018-06-18T15:47:21.973Z,131.63
2018-06-18T15:49:53.145Z,131.57
2018-06-18T15:52:24.627Z,135.07
2018-06-18T15:54:55.810Z,139.22
2018-06-18T15:57:27.137Z,133.67
2018-06-18T15:59:58.311Z,137.30
2018-06-18T16:02:29.569Z,135.65
2018-06-18T16:05:00.683Z,133.75
2018-06-18T16:07:32.795Z,132.15
2018-06-18T16:10:04.481Z,131.50
2018-06-18T16:12:35.787Z,138.35
2018-06-18T16:15:07.254Z,136.85
2018-06-18T16:17:38.727Z,138.20
2018-06-18T16:20:09.880Z,141.70
2018-06-18T16:22:41.224Z,142.80
2018-06-18T16:25:13.888Z,136.37
2018-06-18T16:27:47.223Z,139.03
2018-06-18T16:30:22.700Z,135.00
2018-06-18T16:32:56.851Z,130.87
2018-06-18T16:35:32.819Z,136.80
2018-06-18T16:38:06.368Z,138.62
2018-06-18T16:40:40.500Z,134.55
2018-06-18T16:43:17.355Z,137.55
2018-06-18T16:45:49.897Z,137.07
2018-06-18T16:48:23.077Z,139.88
2018-06-18T16:50:57.089Z,136.75
2018-06-18T16:53:29.788Z,133.43
2018-06-18T16:56:00.964Z,138.20
2018-06-18T16:58:32.310Z,139.60
2018-06-18T17:01:03.363Z,138.20
2018-06-18T17:03:34.675Z,137.25
2018-06-18T17:06:07.832Z,136.28
2018-06-18T17:08:39.248Z,132.60
2018-06-18T17:11:10.401Z,132.45
2018-06-18T17:13:42.289Z,135.70
2018-06-18T17:16:14.370Z,131.95
2018-06-18T17:18:45.799Z,133.43
2018-06-18T17:21:19.111Z,132.12
2018-06-18T17:23:50.882Z,132.43
2018-06-18T17:26:22.248Z,125.75
2018-06-18T17:28:53.312Z,130.07
2018-06-18T17:31:25.508Z,132.10
2018-06-18T17:33:56.997Z,127.02
2018-06-18T17:36:28.422Z,124.42
2018-06-18T17:38:59.583Z,131.05
2018-06-18T17:41:30.962Z,130.97
2018-06-18T17:44:01.973Z,129.03
2018-06-18T17:46:33.471Z,133.60
2018-06-18T17:49:04.629Z,128.12
2018-06-18T17:51:36.416Z,130.82
2018-06-18T17:54:07.451Z,133.72
2018-06-18T17:56:38.613Z,128.80
2018-06-18T17:59:09.941Z,126.75
2018-06-18T18:01:41.190Z,129.32
2018-06-18T18:04:12.206Z,128.87
2018-06-18T18:06:44.077Z,127.02
2018-06-18T18:09:15.181Z,129.53
2018-06-18T18:11:46.370Z,130.03
2018-06-18T18:14:17.676Z,134.37
2018-06-18T18:17:00.085Z,142.87
2018-06-18T18:19:35.445Z,135.05
2018-06-18T18:22:07.719Z,130.82
2018-06-18T18:24:40.546Z,129.78
2018-06-18T18:27:12.453Z,127.55
2018-06-18T18:29:43.832Z,128.50
2018-06-18T18:32:16.387Z,133.25
2018-06-18T18:34:48.383Z,130.27
2018-06-18T18:37:19.713Z,125.90
2018-06-18T18:39:51.102Z,126.02
2018-06-18T18:42:23.379Z,128.82
2018-06-18T18:44:55.387Z,129.00
2018-06-18T18:47:28.033Z,131.95
2018-06-18T18:49:59.575Z,129.80
2018-06-18T18:52:30.965Z,131.43
2018-06-18T18:55:43.090Z,128.50
2018-06-18T18:58:25.290Z,129.78
2018-06-18T19:00:57.896Z,133.82
2018-06-18T19:03:30.340Z,125.80
2018-06-18T19:06:02.068Z,129.45
2018-06-18T19:08:33.926Z,129.85
2018-06-18T19:11:06.193Z,136.62
2018-06-18T19:13:38.643Z,138.57
2018-06-18T19:16:10.425Z,130.10
2018-06-18T19:18:45.815Z,132.22
2018-06-18T19:21:17.426Z,127.25
2018-06-18T19:23:49.498Z,132.03
2018-06-18T19:26:21.405Z,129.75
2018-06-18T19:28:53.542Z,133.18
2018-06-18T19:31:27.757Z,128.57
2018-06-18T19:34:09.350Z,129.60
2018-06-18T19:36:46.228Z,133.72
2018-06-18T19:39:18.421Z,136.03
2018-06-18T19:41:49.787Z,129.75
2018-06-18T19:44:21.111Z,128.70
2018-06-18T19:49:18.365Z,132.12
2018-06-18T19:51:58.645Z,131.22
2018-06-18T19:54:34.249Z,134.52
2018-06-18T19:57:05.269Z,133.70
2018-06-18T19:59:36.637Z,131.18
2018-06-18T20:02:07.913Z,128.93
2018-06-18T20:04:39.723Z,133.90
2018-06-18T20:07:11.997Z,130.63
2018-06-18T20:09:45.118Z,130.03
2018-06-18T20:12:16.139Z,137.92
2018-06-18T20:14:47.665Z,135.75
2018-06-18T20:17:18.935Z,136.25
2018-06-18T20:19:50.295Z,133.72
2018-06-18T20:22:21.313Z,130.85
2018-06-18T20:24:53.412Z,131.10
2018-06-18T20:27:24.486Z,133.93
2018-06-18T20:29:55.909Z,135.07
2018-06-18T20:32:26.810Z,166.37
2018-06-18T20:34:58.772Z,146.00
2018-06-18T20:37:29.771Z,138.75
2018-06-18T20:40:01.160Z,137.62
2018-06-18T20:42:32.653Z,140.45
2018-06-18T20:45:03.668Z,139.95
2018-06-18T20:47:35.608Z,139.45
2018-06-18T20:50:09.233Z,144.75
2018-06-18T20:52:40.434Z,138.97
2018-06-18T20:55:12.071Z,141.25
2018-06-18T20:57:43.195Z,141.92
2018-06-18T21:00:14.295Z,133.63
2018-06-18T21:02:45.639Z,132.32
2018-06-18T21:05:16.853Z,131.82
2018-06-18T21:07:48.283Z,131.85
2018-06-18T21:10:19.854Z,140.10
2018-06-18T21:12:50.997Z,132.67
2018-06-18T21:15:22.436Z,133.72
2018-06-18T21:17:54.542Z,136.28
2018-06-18T21:20:28.339Z,135.60
2018-06-18T21:22:59.305Z,133.52
2018-06-18T21:25:30.669Z,130.75
2018-06-18T21:28:02.201Z,130.22
2018-06-18T21:30:33.673Z,135.97
2018-06-18T21:33:04.955Z,134.15
2018-06-18T21:35:36.085Z,131.72
2018-06-18T21:38:07.020Z,130.00
2018-06-18T21:40:38.113Z,132.25
2018-06-18T21:43:09.555Z,135.48
2018-06-18T21:45:40.870Z,135.48
2018-06-18T21:48:11.893Z,130.75
2018-06-18T21:50:43.339Z,132.85
2018-06-18T21:53:14.319Z,130.63
2018-06-18T21:55:45.545Z,127.02
2018-06-18T21:58:16.618Z,126.55
2018-06-18T22:00:50.473Z,129.05
2018-06-18T22:03:21.668Z,132.32
2018-06-18T22:05:53.006Z,128.45
2018-06-18T22:08:25.332Z,127.47
2018-06-18T22:10:56.835Z,126.05
2018-06-18T22:13:28.085Z,122.90
2018-06-18T22:15:59.446Z,127.72
2018-06-18T22:18:30.555Z,123.67
2018-06-18T22:21:01.940Z,125.82
2018-06-18T22:23:33.133Z,124.70
2018-06-18T22:26:04.248Z,123.53
2018-06-18T22:28:37.817Z,124.20
2018-06-18T22:31:08.957Z,127.95
2018-06-18T22:33:39.886Z,124.30
2018-06-18T22:36:11.249Z,124.10
2018-06-18T22:38:42.488Z,128.68
2018-06-18T22:41:14.317Z,123.72
2018-06-18T22:43:45.804Z,129.57
2018-06-18T22:46:17.231Z,127.53
2018-06-18T22:48:48.364Z,129.70
2018-06-18T22:51:19.569Z,129.60
2018-06-18T22:53:50.587Z,127.80
2018-06-18T22:56:22.018Z,126.50
2018-06-18T22:58:53.001Z,124.55
2018-06-18T23:01:24.016Z,126.00
2018-06-18T23:03:58.028Z,123.72
2018-06-18T23:06:30.769Z,125.10
2018-06-18T23:09:07.258Z,126.65
2018-06-18T23:11:38.449Z,126.80
2018-06-18T23:14:19.353Z,125.95
2018-06-18T23:16:50.421Z,130.30
2018-06-18T23:19:21.421Z,129.93
2018-06-18T23:21:52.626Z,129.93
2018-06-18T23:24:23.609Z,129.32
2018-06-18T23:26:54.879Z,131.12
2018-06-18T23:29:26.059Z,134.37
2018-06-18T23:31:57.500Z,125.58
2018-06-18T23:34:28.547Z,127.87
2018-06-18T23:36:59.548Z,126.18
2018-06-18T23:39:30.612Z,125.60
2018-06-18T23:42:01.806Z,129.27
2018-06-18T23:44:32.943Z,128.18
2018-06-18T23:47:04.160Z,127.38
2018-06-18T23:49:35.385Z,126.00
2018-06-18T23:52:06.642Z,122.05
2018-06-18T23:54:37.774Z,119.42
2018-06-18T23:57:09.149Z,124.95
2018-06-18T23:59:40.456Z,123.58
